createdAt,value
2023-03-12T00:01:14.571Z,4.25
2023-03-12T00:03:41.486Z,4.65
2023-03-12T00:06:10.856Z,4.15
2023-03-12T00:08:37.628Z,4.25
2023-03-12T00:11:09.824Z,4.70
2023-03-12T00:13:36.424Z,3.60
2023-03-12T00:16:13.982Z,3.72
2023-03-12T00:18:42.106Z,4.07
2023-03-12T00:21:10.057Z,4.30
2023-03-12T00:23:36.951Z,4.10
2023-03-12T00:26:06.090Z,4.30
2023-03-12T00:28:33.206Z,4.03
2023-03-12T00:30:59.686Z,3.72
2023-03-12T00:33:27.505Z,3.58
2023-03-12T00:35:54.098Z,3.55
2023-03-12T00:38:20.729Z,4.03
2023-03-12T00:40:48.379Z,4.15
2023-03-12T00:43:15.024Z,3.53
2023-03-12T00:45:41.635Z,4.35
2023-03-12T00:48:08.108Z,3.55
2023-03-12T00:50:34.639Z,2.95
2023-03-12T00:53:01.195Z,3.55
2023-03-12T00:55:27.716Z,3.25
2023-03-12T00:57:54.310Z,4.05
2023-03-12T01:00:21.433Z,3.55
2023-03-12T01:02:48.057Z,4.38
2023-03-12T01:05:15.206Z,3.03
2023-03-12T01:07:41.952Z,2.97
2023-03-12T01:10:09.868Z,3.70
2023-03-12T01:12:37.312Z,3.47
2023-03-12T01:15:04.435Z,4.30
2023-03-12T01:17:30.977Z,3.33
2023-03-12T01:19:58.510Z,3.20
2023-03-12T01:22:25.026Z,3.80
2023-03-12T01:24:51.550Z,3.60
2023-03-12T01:27:18.282Z,3.08
2023-03-12T01:29:44.819Z,3.28
2023-03-12T01:32:11.371Z,3.05
2023-03-12T01:34:37.886Z,3.13
2023-03-12T01:37:04.452Z,3.90
2023-03-12T01:39:31.055Z,2.97
2023-03-12T01:41:57.750Z,3.63
2023-03-12T01:44:24.340Z,3.60
2023-03-12T01:46:50.863Z,3.10
2023-03-12T01:49:28.682Z,3.42
2023-03-12T01:51:59.515Z,3.00
2023-03-12T01:54:35.440Z,3.50
2023-03-12T01:57:04.616Z,3.08
2023-03-12T01:59:36.990Z,3.67
2023-03-12T02:02:05.842Z,2.97
2023-03-12T02:04:33.441Z,3.42
2023-03-12T02:07:05.824Z,3.60
2023-03-12T02:09:39.808Z,3.70
2023-03-12T02:12:07.478Z,3.28
2023-03-12T02:14:34.571Z,2.72
2023-03-12T02:17:01.291Z,3.60
2023-03-12T02:19:38.242Z,3.58
2023-03-12T02:22:05.338Z,5.00
2023-03-12T02:24:37.118Z,4.65
2023-03-12T02:27:05.727Z,4.90
2023-03-12T02:29:35.655Z,4.15
2023-03-12T02:32:04.496Z,3.60
2023-03-12T02:34:31.256Z,3.38
2023-03-12T02:36:57.878Z,3.00
2023-03-12T02:39:24.810Z,3.40
2023-03-12T02:41:55.035Z,3.65
2023-03-12T02:44:25.552Z,3.92
2023-03-12T02:46:55.160Z,3.45
2023-03-12T02:49:25.749Z,4.10
2023-03-12T02:51:53.351Z,4.00
2023-03-12T02:54:20.804Z,3.97
2023-03-12T02:56:48.221Z,4.10
2023-03-12T02:59:16.588Z,4.10
2023-03-12T03:01:44.583Z,3.88
2023-03-12T03:04:11.797Z,4.00
2023-03-12T03:06:41.291Z,3.88
2023-03-12T03:09:07.938Z,3.67
2023-03-12T03:11:34.988Z,3.58
2023-03-12T03:14:04.367Z,3.45
2023-03-12T03:16:31.362Z,3.47
2023-03-12T03:18:58.945Z,3.25
2023-03-12T03:21:25.582Z,3.00
2023-03-12T03:23:52.258Z,3.25
2023-03-12T03:26:21.303Z,3.40
2023-03-12T03:28:48.538Z,2.80
2023-03-12T03:31:15.124Z,3.35
2023-03-12T03:33:43.066Z,3.13
2023-03-12T03:36:14.837Z,2.92
2023-03-12T03:38:50.375Z,3.60
2023-03-12T03:41:20.175Z,3.20
2023-03-12T03:43:47.465Z,3.30
2023-03-12T03:46:16.774Z,2.97
2023-03-12T03:48:47.662Z,3.35
2023-03-12T03:51:15.231Z,2.97
2023-03-12T03:53:44.992Z,3.78
2023-03-12T03:56:16.248Z,3.05
2023-03-12T03:58:48.696Z,2.90
2023-03-12T04:01:17.185Z,3.78
2023-03-12T04:03:45.538Z,3.38
2023-03-12T04:06:12.637Z,2.67
2023-03-12T04:08:40.264Z,2.78
2023-03-12T04:11:16.126Z,2.83
2023-03-12T04:13:43.335Z,2.55
2023-03-12T04:16:12.205Z,2.85
2023-03-12T04:18:40.074Z,2.95
2023-03-12T04:21:09.468Z,2.45
2023-03-12T04:23:37.251Z,2.63
2023-03-12T04:26:05.524Z,2.72
2023-03-12T04:28:32.521Z,2.60
2023-03-12T04:31:02.006Z,2.90
2023-03-12T04:33:37.062Z,2.60
2023-03-12T04:36:05.010Z,2.60
2023-03-12T04:38:32.646Z,2.53
2023-03-12T04:41:04.731Z,2.83
2023-03-12T04:43:32.835Z,2.95
2023-03-12T04:45:59.733Z,2.80
2023-03-12T04:48:27.328Z,2.92
2023-03-12T04:50:54.476Z,2.90
2023-03-12T04:53:22.075Z,2.67
2023-03-12T04:55:50.387Z,3.10
2023-03-12T04:58:19.447Z,2.95
2023-03-12T05:00:47.882Z,3.08
2023-03-12T05:03:15.060Z,3.03
2023-03-12T05:05:42.244Z,2.70
2023-03-12T05:08:09.275Z,2.50
2023-03-12T05:10:36.348Z,2.88
2023-03-12T05:13:02.847Z,2.70
2023-03-12T05:15:30.112Z,3.42
2023-03-12T05:17:57.006Z,2.60
2023-03-12T05:20:23.542Z,2.97
2023-03-12T05:22:50.232Z,2.50
2023-03-12T05:25:17.347Z,2.92
2023-03-12T05:27:44.060Z,2.60
2023-03-12T05:30:12.645Z,2.85
2023-03-12T05:32:39.532Z,2.65
2023-03-12T05:35:06.242Z,2.90
2023-03-12T05:37:33.238Z,2.95
2023-03-12T05:40:00.658Z,2.72
2023-03-12T05:42:28.081Z,2.67
2023-03-12T05:44:56.941Z,4.05
2023-03-12T05:47:23.451Z,3.10
2023-03-12T05:49:50.517Z,2.53
2023-03-12T05:52:17.248Z,3.15
2023-03-12T05:54:43.926Z,2.97
2023-03-12T05:57:10.564Z,2.70
2023-03-12T05:59:37.273Z,2.60
2023-03-12T06:02:05.420Z,3.08
2023-03-12T06:04:33.112Z,3.08
2023-03-12T06:07:00.195Z,2.92
2023-03-12T06:09:27.200Z,3.05
2023-03-12T06:11:53.929Z,3.42
2023-03-12T06:14:20.901Z,2.85
2023-03-12T06:16:48.261Z,2.97
2023-03-12T06:19:14.864Z,2.67
2023-03-12T06:21:43.924Z,3.17
2023-03-12T06:24:11.094Z,2.83
2023-03-12T06:26:44.728Z,2.70
2023-03-12T06:29:11.242Z,2.83
2023-03-12T06:31:39.624Z,3.47
2023-03-12T06:34:06.253Z,2.83
2023-03-12T06:36:32.791Z,3.63
2023-03-12T06:38:59.301Z,3.13
2023-03-12T06:41:26.009Z,3.00
2023-03-12T06:43:52.527Z,2.97
2023-03-12T06:46:21.716Z,3.72
2023-03-12T06:48:48.811Z,3.47
2023-03-12T06:51:17.028Z,3.50
2023-03-12T06:53:45.399Z,3.25
2023-03-12T06:56:13.332Z,3.25
2023-03-12T06:58:39.934Z,3.65
2023-03-12T07:01:07.217Z,3.50
2023-03-12T07:03:34.074Z,3.20
2023-03-12T07:06:00.825Z,3.75
2023-03-12T07:08:30.902Z,4.32
2023-03-12T07:11:01.117Z,3.35
2023-03-12T07:13:27.965Z,2.90
2023-03-12T07:15:54.479Z,3.90
2023-03-12T07:18:21.243Z,3.35
2023-03-12T07:20:47.863Z,3.42
2023-03-12T07:23:14.994Z,3.38
2023-03-12T07:25:43.233Z,3.15
2023-03-12T07:28:11.587Z,3.42
2023-03-12T07:30:38.583Z,3.40
2023-03-12T07:33:07.809Z,3.85
2023-03-12T07:35:35.112Z,3.78
2023-03-12T07:38:03.903Z,3.95
2023-03-12T07:40:30.490Z,4.10
2023-03-12T07:42:57.794Z,3.95
2023-03-12T07:45:25.063Z,5.00
2023-03-12T07:47:52.026Z,5.78
2023-03-12T07:50:18.992Z,5.78
2023-03-12T07:52:46.865Z,5.70
2023-03-12T07:55:13.865Z,4.50
2023-03-12T07:57:40.735Z,4.55
2023-03-12T08:00:13.216Z,4.03
2023-03-12T08:02:39.887Z,4.38
2023-03-12T08:05:07.647Z,4.82
2023-03-12T08:07:35.346Z,4.78
2023-03-12T08:10:03.648Z,5.35
2023-03-12T08:12:30.414Z,5.10
2023-03-12T08:14:56.889Z,4.53
2023-03-12T08:17:23.428Z,6.03
2023-03-12T08:19:49.916Z,5.60
2023-03-12T08:22:16.730Z,6.53
2023-03-12T08:24:44.150Z,5.53
2023-03-12T08:27:12.243Z,5.82
2023-03-12T08:29:39.455Z,4.95
2023-03-12T08:32:06.197Z,6.47
2023-03-12T08:34:34.515Z,6.05
2023-03-12T08:37:01.511Z,6.03
2023-03-12T08:39:28.000Z,6.30
2023-03-12T08:41:55.430Z,5.40
2023-03-12T08:44:23.256Z,5.30
2023-03-12T08:46:50.076Z,8.80
2023-03-12T08:49:16.843Z,5.65
2023-03-12T08:51:43.504Z,5.65
2023-03-12T08:54:09.999Z,5.63
2023-03-12T08:56:42.369Z,6.20
2023-03-12T08:59:13.246Z,6.53
2023-03-12T09:01:43.140Z,6.65
2023-03-12T09:04:10.690Z,6.25
2023-03-12T09:06:38.376Z,6.10
2023-03-12T09:09:05.315Z,7.22
2023-03-12T09:11:33.303Z,6.65
2023-03-12T09:14:53.960Z,6.70
2023-03-12T09:16:47.679Z,7.00
2023-03-12T09:19:14.424Z,7.65
2023-03-12T09:21:41.453Z,7.13
2023-03-12T09:24:08.210Z,8.05
2023-03-12T09:26:34.785Z,7.25
2023-03-12T09:29:01.478Z,6.78
2023-03-12T09:31:28.228Z,6.90
2023-03-12T09:33:54.758Z,6.88
2023-03-12T09:36:21.225Z,6.07
2023-03-12T09:38:47.735Z,7.68
2023-03-12T09:41:20.789Z,9.18
2023-03-12T09:44:10.187Z,6.55
2023-03-12T09:46:41.192Z,7.43
2023-03-12T09:49:17.760Z,7.30
2023-03-12T09:51:49.349Z,8.60
2023-03-12T09:54:36.469Z,7.32
2023-03-12T09:57:08.928Z,8.45
2023-03-12T09:59:36.962Z,7.88
2023-03-12T10:02:17.856Z,8.88
2023-03-12T10:04:59.400Z,9.32
2023-03-12T10:07:36.990Z,13.10
2023-03-12T10:10:29.705Z,9.82
2023-03-12T10:13:18.055Z,11.07
2023-03-12T10:16:06.542Z,10.10
2023-03-12T10:18:53.940Z,9.40
2023-03-12T10:21:43.122Z,8.20
2023-03-12T10:24:12.636Z,8.70
2023-03-12T10:26:42.996Z,9.45
2023-03-12T10:29:25.911Z,7.80
2023-03-12T10:32:11.552Z,10.00
2023-03-12T10:34:42.973Z,10.65
2023-03-12T10:37:18.633Z,10.05
2023-03-12T10:39:45.881Z,9.20
2023-03-12T10:42:24.105Z,8.95
2023-03-12T10:45:05.891Z,10.13
2023-03-12T10:47:42.516Z,9.63
2023-03-12T10:50:21.471Z,9.48
2023-03-12T10:52:50.712Z,9.43
2023-03-12T10:55:26.412Z,10.15
2023-03-12T10:57:54.149Z,9.45
2023-03-12T11:00:24.180Z,9.38
2023-03-12T11:03:05.945Z,8.77
2023-03-12T11:05:45.466Z,10.43
2023-03-12T11:08:36.103Z,10.77
2023-03-12T11:11:05.224Z,13.75
2023-03-12T11:13:34.662Z,11.10
2023-03-12T11:16:24.851Z,9.98
2023-03-12T11:18:56.914Z,10.35
2023-03-12T11:21:23.737Z,8.82
2023-03-12T11:23:56.312Z,8.70
2023-03-12T11:26:53.673Z,9.80
2023-03-12T11:29:32.891Z,7.20
2023-03-12T11:32:23.257Z,7.20
2023-03-12T11:34:51.091Z,7.10
2023-03-12T11:37:51.978Z,7.72
2023-03-12T11:40:24.322Z,7.22
2023-03-12T11:43:15.843Z,6.22
2023-03-12T11:45:49.322Z,5.65
2023-03-12T11:48:37.482Z,6.20
2023-03-12T11:51:17.954Z,6.47
2023-03-12T11:53:50.568Z,5.50
2023-03-12T11:56:43.300Z,5.63
2023-03-12T11:59:27.447Z,5.35
2023-03-12T12:02:12.747Z,6.07
2023-03-12T12:05:04.011Z,5.68
2023-03-12T12:07:44.302Z,5.15
2023-03-12T12:10:38.337Z,6.60
2023-03-12T12:13:16.676Z,5.13
2023-03-12T12:15:56.953Z,5.55
2023-03-12T12:19:13.998Z,5.43
2023-03-12T12:21:58.804Z,4.97
2023-03-12T12:24:35.403Z,4.95
2023-03-12T12:27:24.200Z,5.15
2023-03-12T12:30:22.503Z,5.05
2023-03-12T12:33:19.507Z,4.82
2023-03-12T12:35:46.195Z,4.57
2023-03-12T12:38:15.732Z,5.13
2023-03-12T12:40:53.521Z,4.15
2023-03-12T12:43:33.280Z,5.57
2023-03-12T12:46:04.521Z,6.15
2023-03-12T12:48:36.346Z,5.10
2023-03-12T12:51:07.547Z,4.70
2023-03-12T12:53:50.626Z,4.93
2023-03-12T12:56:31.042Z,4.28
2023-03-12T12:59:03.619Z,4.53
2023-03-12T13:01:32.575Z,5.18
2023-03-12T13:04:09.618Z,4.10
2023-03-12T13:06:56.489Z,5.88
2023-03-12T13:09:44.612Z,4.68
2023-03-12T13:12:15.940Z,3.58
2023-03-12T13:14:44.386Z,5.82
2023-03-12T13:17:44.812Z,5.03
2023-03-12T13:20:21.055Z,5.38
2023-03-12T13:23:17.248Z,5.15
2023-03-12T13:25:57.252Z,4.68
2023-03-12T13:28:30.307Z,4.63
2023-03-12T13:30:57.955Z,3.88
2023-03-12T13:33:56.542Z,3.55
2023-03-12T13:36:25.212Z,3.75
2023-03-12T13:39:17.271Z,3.25
2023-03-12T13:41:55.144Z,3.40
2023-03-12T13:44:31.264Z,3.95
2023-03-12T13:47:10.781Z,4.13
2023-03-12T13:50:04.918Z,4.13
2023-03-12T13:52:48.646Z,3.92
2023-03-12T13:55:24.384Z,5.22
2023-03-12T13:57:55.452Z,3.63
2023-03-12T14:00:30.980Z,3.97
2023-03-12T14:03:11.278Z,3.88
2023-03-12T14:05:45.832Z,4.13
2023-03-12T14:08:44.694Z,4.65
2023-03-12T14:11:36.243Z,3.55
2023-03-12T14:14:24.022Z,4.00
2023-03-12T14:16:59.795Z,3.83
2023-03-12T14:19:28.975Z,4.25
2023-03-12T14:21:59.872Z,3.15
2023-03-12T14:24:40.610Z,3.83
2023-03-12T14:27:15.163Z,4.00
2023-03-12T14:29:45.201Z,3.40
2023-03-12T14:32:19.311Z,4.28
2023-03-12T14:35:07.989Z,3.33
2023-03-12T14:37:45.104Z,4.32
2023-03-12T14:40:46.757Z,3.65
2023-03-12T14:43:23.973Z,3.90
2023-03-12T14:45:54.220Z,3.47
2023-03-12T14:48:27.590Z,3.05
2023-03-12T14:50:56.089Z,3.17
2023-03-12T14:53:29.227Z,2.97
2023-03-12T14:56:03.144Z,3.22
2023-03-12T15:01:05.615Z,3.60
2023-03-12T15:03:47.031Z,4.15
2023-03-12T15:06:49.060Z,4.15
2023-03-12T15:09:22.068Z,4.15
2023-03-12T15:11:55.486Z,3.30
2023-03-12T15:14:23.413Z,4.50
2023-03-12T15:16:50.880Z,4.00
2023-03-12T15:19:21.892Z,3.80
2023-03-12T15:21:48.937Z,3.45
2023-03-12T15:24:16.216Z,4.65
2023-03-12T15:26:43.825Z,3.58
2023-03-12T15:29:28.193Z,4.20
2023-03-12T15:32:00.204Z,5.22
2023-03-12T15:34:35.224Z,3.85
2023-03-12T15:37:19.545Z,4.18
2023-03-12T15:39:49.377Z,5.10
2023-03-12T15:42:19.494Z,4.20
2023-03-12T15:44:48.909Z,5.22
2023-03-12T15:47:20.346Z,3.88
2023-03-12T15:50:12.680Z,4.43
2023-03-12T15:52:39.225Z,3.63
2023-03-12T15:55:11.734Z,3.70
2023-03-12T15:57:49.945Z,3.55
2023-03-12T16:00:31.576Z,4.55
2023-03-12T16:03:00.979Z,4.03
2023-03-12T16:05:33.510Z,4.00
2023-03-12T16:08:15.972Z,3.20
2023-03-12T16:10:42.561Z,4.18
2023-03-12T16:13:14.149Z,4.35
2023-03-12T16:15:41.289Z,4.35
2023-03-12T16:18:14.557Z,3.97
2023-03-12T16:20:41.737Z,3.80
2023-03-12T16:23:08.489Z,4.03
2023-03-12T16:25:35.391Z,3.65
2023-03-12T16:28:05.534Z,3.88
2023-03-12T16:30:35.149Z,4.28
2023-03-12T16:33:08.230Z,3.88
2023-03-12T16:35:35.422Z,4.03
2023-03-12T16:38:02.397Z,3.95
2023-03-12T16:40:34.119Z,5.43
2023-03-12T16:43:03.654Z,3.33
2023-03-12T16:45:33.539Z,4.13
2023-03-12T16:48:02.536Z,5.15
2023-03-12T16:50:29.293Z,3.63
2023-03-12T16:52:56.465Z,3.50
2023-03-12T16:55:43.929Z,4.32
2023-03-12T16:58:12.930Z,3.83
2023-03-12T17:00:40.567Z,3.47
2023-03-12T17:03:07.306Z,4.47
2023-03-12T17:05:33.853Z,3.10
2023-03-12T17:08:00.322Z,3.10
2023-03-12T17:10:26.830Z,3.47
2023-03-12T17:12:55.631Z,3.50
2023-03-12T17:15:23.648Z,3.40
2023-03-12T17:17:50.554Z,3.60
2023-03-12T17:20:19.401Z,3.22
2023-03-12T17:22:46.616Z,3.10
2023-03-12T17:25:25.867Z,3.88
2023-03-12T17:27:53.150Z,3.70
2023-03-12T17:30:21.591Z,4.15
2023-03-12T17:32:48.760Z,4.47
2023-03-12T17:35:15.630Z,4.20
2023-03-12T17:37:42.160Z,3.53
2023-03-12T17:40:09.921Z,3.40
2023-03-12T17:42:38.356Z,3.65
2023-03-12T17:45:06.728Z,3.55
2023-03-12T17:47:33.252Z,3.83
2023-03-12T17:49:59.729Z,3.45
2023-03-12T17:52:26.252Z,3.95
2023-03-12T17:54:52.722Z,5.43
2023-03-12T17:57:19.203Z,4.43
2023-03-12T17:59:45.661Z,4.18
2023-03-12T18:02:14.274Z,4.10
2023-03-12T18:04:40.909Z,2.97
2023-03-12T18:07:07.620Z,3.25
2023-03-12T18:09:34.151Z,3.88
2023-03-12T18:12:00.622Z,4.22
2023-03-12T18:14:27.192Z,4.05
2023-03-12T18:16:53.716Z,4.60
2023-03-12T18:19:21.699Z,4.32
2023-03-12T18:21:48.150Z,4.10
2023-03-12T18:24:14.961Z,3.83
2023-03-12T18:26:45.231Z,4.50
2023-03-12T18:29:14.464Z,4.57
2023-03-12T18:31:42.329Z,4.03
2023-03-12T18:34:08.924Z,3.70
2023-03-12T18:36:35.406Z,4.45
2023-03-12T18:39:04.563Z,3.70
2023-03-12T18:41:32.793Z,3.38
2023-03-12T18:44:00.312Z,5.18
2023-03-12T18:46:27.525Z,5.25
2023-03-12T18:48:54.065Z,3.58
2023-03-12T18:51:20.599Z,5.10
2023-03-12T18:53:47.215Z,3.80
2023-03-12T18:56:14.114Z,3.47
2023-03-12T18:58:43.566Z,3.20
2023-03-12T19:01:10.704Z,3.95
2023-03-12T19:03:37.219Z,4.30
2023-03-12T19:06:09.395Z,4.65
2023-03-12T19:08:39.323Z,3.88
2023-03-12T19:11:11.445Z,4.40
2023-03-12T19:13:38.199Z,4.43
2023-03-12T19:16:08.701Z,4.32
2023-03-12T19:18:35.968Z,3.60
2023-03-12T19:21:02.589Z,3.97
2023-03-12T19:23:29.416Z,3.45
2023-03-12T19:25:55.886Z,4.00
2023-03-12T19:28:22.316Z,4.00
2023-03-12T19:30:48.844Z,3.88
2023-03-12T19:33:15.465Z,4.40
2023-03-12T19:35:42.961Z,4.22
2023-03-12T19:38:09.533Z,3.50
2023-03-12T19:40:36.101Z,4.38
2023-03-12T19:43:02.743Z,4.60
2023-03-12T19:45:29.416Z,4.38
2023-03-12T19:47:55.933Z,5.75
2023-03-12T19:50:23.293Z,5.80
2023-03-12T19:52:49.796Z,5.53
2023-03-12T19:55:16.460Z,4.90
2023-03-12T19:57:42.945Z,4.57
2023-03-12T20:00:12.110Z,3.55
2023-03-12T20:02:39.311Z,4.22
2023-03-12T20:05:07.620Z,4.47
2023-03-12T20:07:34.749Z,4.32
2023-03-12T20:10:01.755Z,4.72
2023-03-12T20:12:28.301Z,4.63
2023-03-12T20:14:54.847Z,3.63
2023-03-12T20:17:21.310Z,4.47
2023-03-12T20:19:47.799Z,3.67
2023-03-12T20:22:14.507Z,4.30
2023-03-12T20:24:41.094Z,4.25
2023-03-12T20:27:07.738Z,4.32
2023-03-12T20:29:34.315Z,5.40
2023-03-12T20:32:00.904Z,5.13
2023-03-12T20:34:27.393Z,3.60
2023-03-12T20:36:53.914Z,3.90
2023-03-12T20:39:20.626Z,4.93
2023-03-12T20:41:49.199Z,3.80
2023-03-12T20:44:15.747Z,4.32
2023-03-12T20:46:42.268Z,5.38
2023-03-12T20:49:08.726Z,4.63
2023-03-12T20:51:35.338Z,4.38
2023-03-12T20:54:01.806Z,3.75
2023-03-12T20:56:28.273Z,5.70
2023-03-12T20:58:54.799Z,5.20
2023-03-12T21:01:21.422Z,5.32
2023-03-12T21:03:47.900Z,3.83
2023-03-12T21:06:14.378Z,3.90
2023-03-12T21:08:40.892Z,4.45
2023-03-12T21:11:08.379Z,4.50
2023-03-12T21:13:36.204Z,4.32
2023-03-12T21:16:05.683Z,4.22
2023-03-12T21:18:32.590Z,4.00
2023-03-12T21:21:06.893Z,3.60
2023-03-12T21:23:34.997Z,4.45
2023-03-12T21:26:07.216Z,4.75
2023-03-12T21:28:35.212Z,5.80
2023-03-12T21:31:07.323Z,5.00
2023-03-12T21:33:34.072Z,3.88
2023-03-12T21:36:04.085Z,3.90
2023-03-12T21:38:30.554Z,4.00
2023-03-12T21:40:59.232Z,4.07
2023-03-12T21:43:29.545Z,4.25
2023-03-12T21:45:56.055Z,3.60
2023-03-12T21:48:22.517Z,3.78
2023-03-12T21:50:49.392Z,3.63
2023-03-12T21:53:23.491Z,3.53
2023-03-12T21:55:55.321Z,5.65
2023-03-12T21:58:21.867Z,4.18
2023-03-12T22:00:48.314Z,4.75
2023-03-12T22:03:14.792Z,4.40
2023-03-12T22:05:41.298Z,4.28
2023-03-12T22:08:07.821Z,4.60
2023-03-12T22:10:34.340Z,3.60
2023-03-12T22:13:00.854Z,4.05
2023-03-12T22:15:28.299Z,4.20
2023-03-12T22:17:54.973Z,4.13
2023-03-12T22:20:21.585Z,3.78
2023-03-12T22:22:48.109Z,3.78
2023-03-12T22:25:14.680Z,4.32
2023-03-12T22:27:41.234Z,3.85
2023-03-12T22:30:08.694Z,3.08
2023-03-12T22:32:35.247Z,3.72
2023-03-12T22:35:01.862Z,3.67
2023-03-12T22:37:28.406Z,3.78
2023-03-12T22:39:58.233Z,3.55
2023-03-12T22:42:24.738Z,3.50
2023-03-12T22:44:51.228Z,3.55
2023-03-12T22:47:17.764Z,4.45
2023-03-12T22:49:44.210Z,4.20
2023-03-12T22:52:10.645Z,3.60
2023-03-12T22:54:37.104Z,3.92
2023-03-12T22:57:04.021Z,4.18
2023-03-12T22:59:30.505Z,3.50
2023-03-12T23:01:57.134Z,3.33
2023-03-12T23:04:23.713Z,3.35
2023-03-12T23:06:50.295Z,3.65
2023-03-12T23:09:16.799Z,3.63
2023-03-12T23:11:43.305Z,3.33
2023-03-12T23:14:09.836Z,2.95
2023-03-12T23:16:36.317Z,4.35
2023-03-12T23:19:02.979Z,3.03
2023-03-12T23:21:30.670Z,3.13
2023-03-12T23:23:59.165Z,3.60
2023-03-12T23:26:27.686Z,2.90
2023-03-12T23:28:56.072Z,3.15
2023-03-12T23:31:22.906Z,3.15
2023-03-12T23:33:49.573Z,3.60
2023-03-12T23:36:18.385Z,3.10
2023-03-12T23:38:45.526Z,3.05
2023-03-12T23:41:18.805Z,3.03
2023-03-12T23:43:45.905Z,2.88
2023-03-12T23:46:13.698Z,2.90
2023-03-12T23:48:40.903Z,2.45
2023-03-12T23:51:08.708Z,2.63
2023-03-12T23:53:36.578Z,3.03
2023-03-12T23:56:05.285Z,2.35
2023-03-12T23:58:32.547Z,3.60
